sensor_id;sensor_type;location;lat;lon;timestamp;temperature;humidity
38398;DHT22;24179;52.094;4.408;2024-02-21T00:00:35;9.30;99.90
38398;DHT22;24179;52.094;4.408;2024-02-21T00:03:43;9.20;99.90
38398;DHT22;24179;52.094;4.408;2024-02-21T00:06:44;9.20;99.90
38398;DHT22;24179;52.094;4.408;2024-02-21T00:09:47;9.20;99.90
38398;DHT22;24179;52.094;4.408;2024-02-21T00:12:49;9.20;99.90
38398;DHT22;24179;52.094;4.408;2024-02-21T00:15:55;9.20;99.90
38398;DHT22;24179;52.094;4.408;2024-02-21T00:18:56;9.20;99.90
38398;DHT22;24179;52.094;4.408;2024-02-21T00:21:56;9.20;99.90
38398;DHT22;24179;52.094;4.408;2024-02-21T00:24:59;9.20;99.90
38398;DHT22;24179;52.094;4.408;2024-02-21T00:28:00;9.20;99.90
38398;DHT22;24179;52.094;4.408;2024-02-21T00:31:01;9.30;99.90
38398;DHT22;24179;52.094;4.408;2024-02-21T00:34:01;9.20;99.90
38398;DHT22;24179;52.094;4.408;2024-02-21T00:37:02;9.20;99.90
38398;DHT22;24179;52.094;4.408;2024-02-21T00:40:03;9.20;99.90
38398;DHT22;24179;52.094;4.408;2024-02-21T00:43:03;9.20;99.90
38398;DHT22;24179;52.094;4.408;2024-02-21T00:46:06;9.20;99.90
38398;DHT22;24179;52.094;4.408;2024-02-21T00:49:06;9.20;99.90
38398;DHT22;24179;52.094;4.408;2024-02-21T00:52:07;9.20;99.90
38398;DHT22;24179;52.094;4.408;2024-02-21T00:55:08;9.20;99.90
38398;DHT22;24179;52.094;4.408;2024-02-21T00:58:09;9.20;99.90
38398;DHT22;24179;52.094;4.408;2024-02-21T01:01:10;9.30;99.90
38398;DHT22;24179;52.094;4.408;2024-02-21T01:04:10;9.30;99.90
38398;DHT22;24179;52.094;4.408;2024-02-21T01:07:11;9.20;99.90
38398;DHT22;24179;52.094;4.408;2024-02-21T01:10:11;9.30;99.90
38398;DHT22;24179;52.094;4.408;2024-02-21T01:13:12;9.30;99.90
38398;DHT22;24179;52.094;4.408;2024-02-21T01:16:13;9.20;99.90
38398;DHT22;24179;52.094;4.408;2024-02-21T01:19:13;9.20;99.90
38398;DHT22;24179;52.094;4.408;2024-02-21T01:22:14;9.20;99.90
38398;DHT22;24179;52.094;4.408;2024-02-21T01:25:16;9.20;99.90
38398;DHT22;24179;52.094;4.408;2024-02-21T01:28:17;9.20;99.90
38398;DHT22;24179;52.094;4.408;2024-02-21T01:31:18;9.20;99.90
38398;DHT22;24179;52.094;4.408;2024-02-21T01:34:19;9.20;99.90
38398;DHT22;24179;52.094;4.408;2024-02-21T01:37:19;9.20;99.90
38398;DHT22;24179;52.094;4.408;2024-02-21T01:40:20;9.20;99.90
38398;DHT22;24179;52.094;4.408;2024-02-21T01:43:21;9.20;99.90
38398;DHT22;24179;52.094;4.408;2024-02-21T01:46:21;9.30;99.90
38398;DHT22;24179;52.094;4.408;2024-02-21T01:49:22;9.20;99.90
38398;DHT22;24179;52.094;4.408;2024-02-21T01:52:23;9.20;99.90
38398;DHT22;24179;52.094;4.408;2024-02-21T01:55:26;9.30;99.90
38398;DHT22;24179;52.094;4.408;2024-02-21T01:58:30;9.20;99.90
38398;DHT22;24179;52.094;4.408;2024-02-21T02:01:33;9.20;99.90
38398;DHT22;24179;52.094;4.408;2024-02-21T02:04:34;9.20;99.90
38398;DHT22;24179;52.094;4.408;2024-02-21T02:07:38;9.20;99.90
38398;DHT22;24179;52.094;4.408;2024-02-21T02:10:39;9.20;99.90
38398;DHT22;24179;52.094;4.408;2024-02-21T02:13:41;9.20;99.90
38398;DHT22;24179;52.094;4.408;2024-02-21T02:16:45;9.20;99.90
38398;DHT22;24179;52.094;4.408;2024-02-21T02:19:45;9.20;99.90
38398;DHT22;24179;52.094;4.408;2024-02-21T02:22:52;9.20;99.90
38398;DHT22;24179;52.094;4.408;2024-02-21T02:26:03;9.20;99.90
38398;DHT22;24179;52.094;4.408;2024-02-21T02:29:06;9.30;99.90
38398;DHT22;24179;52.094;4.408;2024-02-21T02:32:09;9.20;99.90
38398;DHT22;24179;52.094;4.408;2024-02-21T02:35:09;9.30;99.90
38398;DHT22;24179;52.094;4.408;2024-02-21T02:38:10;9.20;99.90
38398;DHT22;24179;52.094;4.408;2024-02-21T02:41:12;9.30;99.90
38398;DHT22;24179;52.094;4.408;2024-02-21T02:44:12;9.20;99.90
38398;DHT22;24179;52.094;4.408;2024-02-21T02:47:13;9.20;99.90
38398;DHT22;24179;52.094;4.408;2024-02-21T02:50:14;9.30;99.90
38398;DHT22;24179;52.094;4.408;2024-02-21T02:53:20;9.20;99.90
38398;DHT22;24179;52.094;4.408;2024-02-21T02:56:21;9.20;99.90
38398;DHT22;24179;52.094;4.408;2024-02-21T02:59:23;9.20;99.90
38398;DHT22;24179;52.094;4.408;2024-02-21T03:02:27;9.20;99.90
38398;DHT22;24179;52.094;4.408;2024-02-21T03:05:30;9.20;99.90
38398;DHT22;24179;52.094;4.408;2024-02-21T03:08:31;9.20;99.90
38398;DHT22;24179;52.094;4.408;2024-02-21T03:11:33;9.10;99.90
38398;DHT22;24179;52.094;4.408;2024-02-21T03:14:33;9.20;99.90
38398;DHT22;24179;52.094;4.408;2024-02-21T03:17:34;9.20;99.90
38398;DHT22;24179;52.094;4.408;2024-02-21T03:20:34;9.10;99.90
38398;DHT22;24179;52.094;4.408;2024-02-21T03:23:35;9.20;99.90
38398;DHT22;24179;52.094;4.408;2024-02-21T03:26:37;9.10;99.90
38398;DHT22;24179;52.094;4.408;2024-02-21T03:29:37;9.20;99.90
38398;DHT22;24179;52.094;4.408;2024-02-21T03:32:38;9.20;99.90
38398;DHT22;24179;52.094;4.408;2024-02-21T03:35:39;9.10;99.90
38398;DHT22;24179;52.094;4.408;2024-02-21T03:38:43;9.10;99.90
38398;DHT22;24179;52.094;4.408;2024-02-21T03:41:43;9.10;99.90
38398;DHT22;24179;52.094;4.408;2024-02-21T03:44:44;9.10;99.90
38398;DHT22;24179;52.094;4.408;2024-02-21T03:47:44;9.10;99.90
38398;DHT22;24179;52.094;4.408;2024-02-21T03:50:45;9.20;99.90
38398;DHT22;24179;52.094;4.408;2024-02-21T03:53:45;9.10;99.90
38398;DHT22;24179;52.094;4.408;2024-02-21T03:56:46;9.10;99.90
38398;DHT22;24179;52.094;4.408;2024-02-21T03:59:50;9.10;99.90
38398;DHT22;24179;52.094;4.408;2024-02-21T04:02:53;9.20;99.90
38398;DHT22;24179;52.094;4.408;2024-02-21T04:05:54;9.20;99.90
38398;DHT22;24179;52.094;4.408;2024-02-21T04:08:56;9.10;99.90
38398;DHT22;24179;52.094;4.408;2024-02-21T04:11:56;9.10;99.90
38398;DHT22;24179;52.094;4.408;2024-02-21T04:14:57;9.20;99.90
38398;DHT22;24179;52.094;4.408;2024-02-21T04:17:58;9.10;99.90
38398;DHT22;24179;52.094;4.408;2024-02-21T04:20:59;9.20;99.90
38398;DHT22;24179;52.094;4.408;2024-02-21T04:23:59;9.10;99.90
38398;DHT22;24179;52.094;4.408;2024-02-21T04:27:02;9.10;99.90
38398;DHT22;24179;52.094;4.408;2024-02-21T04:30:03;9.10;99.90
38398;DHT22;24179;52.094;4.408;2024-02-21T04:33:04;9.10;99.90
38398;DHT22;24179;52.094;4.408;2024-02-21T04:36:04;9.10;99.90
38398;DHT22;24179;52.094;4.408;2024-02-21T04:39:05;9.10;99.90
38398;DHT22;24179;52.094;4.408;2024-02-21T04:42:06;9.10;99.90
38398;DHT22;24179;52.094;4.408;2024-02-21T04:45:08;9.10;99.90
38398;DHT22;24179;52.094;4.408;2024-02-21T04:48:09;9.10;99.90
38398;DHT22;24179;52.094;4.408;2024-02-21T04:51:11;9.10;99.90
38398;DHT22;24179;52.094;4.408;2024-02-21T04:54:11;9.20;99.90
38398;DHT22;24179;52.094;4.408;2024-02-21T04:57:12;9.20;99.90
38398;DHT22;24179;52.094;4.408;2024-02-21T05:00:17;9.10;99.90
38398;DHT22;24179;52.094;4.408;2024-02-21T05:03:18;9.10;99.90
38398;DHT22;24179;52.094;4.408;2024-02-21T05:06:18;9.10;99.90
38398;DHT22;24179;52.094;4.408;2024-02-21T05:09:19;9.20;99.90
38398;DHT22;24179;52.094;4.408;2024-02-21T05:12:20;9.10;99.90
38398;DHT22;24179;52.094;4.408;2024-02-21T05:15:20;9.10;99.90
38398;DHT22;24179;52.094;4.408;2024-02-21T05:18:22;9.10;99.90
38398;DHT22;24179;52.094;4.408;2024-02-21T05:21:23;9.10;99.90
38398;DHT22;24179;52.094;4.408;2024-02-21T05:24:25;9.10;99.90
38398;DHT22;24179;52.094;4.408;2024-02-21T05:27:26;9.10;99.90
38398;DHT22;24179;52.094;4.408;2024-02-21T05:30:29;9.20;99.90
38398;DHT22;24179;52.094;4.408;2024-02-21T05:33:30;9.10;99.90
38398;DHT22;24179;52.094;4.408;2024-02-21T05:36:30;9.10;99.90
38398;DHT22;24179;52.094;4.408;2024-02-21T05:39:31;9.10;99.90
38398;DHT22;24179;52.094;4.408;2024-02-21T05:42:31;9.10;99.90
38398;DHT22;24179;52.094;4.408;2024-02-21T05:45:33;9.10;99.90
38398;DHT22;24179;52.094;4.408;2024-02-21T05:48:33;9.10;99.90
38398;DHT22;24179;52.094;4.408;2024-02-21T05:51:35;9.10;99.90
38398;DHT22;24179;52.094;4.408;2024-02-21T05:54:38;9.00;99.90
38398;DHT22;24179;52.094;4.408;2024-02-21T05:57:41;9.10;99.90
38398;DHT22;24179;52.094;4.408;2024-02-21T06:00:43;9.10;99.90
38398;DHT22;24179;52.094;4.408;2024-02-21T06:03:44;9.00;99.90
38398;DHT22;24179;52.094;4.408;2024-02-21T06:06:44;9.00;99.90
38398;DHT22;24179;52.094;4.408;2024-02-21T06:09:49;9.00;99.90
38398;DHT22;24179;52.094;4.408;2024-02-21T06:12:52;9.00;99.90
38398;DHT22;24179;52.094;4.408;2024-02-21T06:15:53;9.00;99.90
38398;DHT22;24179;52.094;4.408;2024-02-21T06:18:53;9.10;99.90
38398;DHT22;24179;52.094;4.408;2024-02-21T06:21:54;9.10;99.90
38398;DHT22;24179;52.094;4.408;2024-02-21T06:24:55;9.00;99.90
38398;DHT22;24179;52.094;4.408;2024-02-21T06:27:55;9.00;99.90
38398;DHT22;24179;52.094;4.408;2024-02-21T06:30:56;9.10;99.90
38398;DHT22;24179;52.094;4.408;2024-02-21T06:33:56;9.10;99.90
38398;DHT22;24179;52.094;4.408;2024-02-21T06:36:57;9.00;99.90
38398;DHT22;24179;52.094;4.408;2024-02-21T06:39:59;9.10;99.90
38398;DHT22;24179;52.094;4.408;2024-02-21T06:43:00;9.00;99.90
38398;DHT22;24179;52.094;4.408;2024-02-21T06:46:00;9.00;99.90
38398;DHT22;24179;52.094;4.408;2024-02-21T06:49:03;9.00;99.90
38398;DHT22;24179;52.094;4.408;2024-02-21T06:52:05;9.00;99.90
38398;DHT22;24179;52.094;4.408;2024-02-21T06:55:07;9.00;99.90
38398;DHT22;24179;52.094;4.408;2024-02-21T06:58:08;9.00;99.90
38398;DHT22;24179;52.094;4.408;2024-02-21T07:01:12;9.00;99.90
38398;DHT22;24179;52.094;4.408;2024-02-21T07:04:13;9.00;99.90
38398;DHT22;24179;52.094;4.408;2024-02-21T07:07:13;8.90;99.90
38398;DHT22;24179;52.094;4.408;2024-02-21T07:10:15;8.90;99.90
38398;DHT22;24179;52.094;4.408;2024-02-21T07:13:17;9.00;99.90
38398;DHT22;24179;52.094;4.408;2024-02-21T07:16:23;9.00;99.90
38398;DHT22;24179;52.094;4.408;2024-02-21T07:19:25;9.00;99.90
38398;DHT22;24179;52.094;4.408;2024-02-21T07:22:26;9.00;99.90
38398;DHT22;24179;52.094;4.408;2024-02-21T07:25:27;8.90;99.90
38398;DHT22;24179;52.094;4.408;2024-02-21T07:28:27;8.90;99.90
38398;DHT22;24179;52.094;4.408;2024-02-21T07:31:29;8.90;99.90
38398;DHT22;24179;52.094;4.408;2024-02-21T07:34:30;8.90;99.90
38398;DHT22;24179;52.094;4.408;2024-02-21T07:37:32;8.90;99.90
38398;DHT22;24179;52.094;4.408;2024-02-21T07:40:36;8.90;99.90
38398;DHT22;24179;52.094;4.408;2024-02-21T07:43:36;9.00;99.90
38398;DHT22;24179;52.094;4.408;2024-02-21T07:46:37;8.90;99.90
38398;DHT22;24179;52.094;4.408;2024-02-21T07:49:44;8.90;99.90
38398;DHT22;24179;52.094;4.408;2024-02-21T07:52:47;8.90;99.90
38398;DHT22;24179;52.094;4.408;2024-02-21T07:55:49;8.90;99.90
38398;DHT22;24179;52.094;4.408;2024-02-21T07:58:50;9.00;99.90
38398;DHT22;24179;52.094;4.408;2024-02-21T08:01:51;8.90;99.90
38398;DHT22;24179;52.094;4.408;2024-02-21T08:04:53;8.90;99.90
38398;DHT22;24179;52.094;4.408;2024-02-21T08:07:54;8.90;99.90
38398;DHT22;24179;52.094;4.408;2024-02-21T08:10:55;9.00;99.90
38398;DHT22;24179;52.094;4.408;2024-02-21T08:13:56;9.00;99.90
38398;DHT22;24179;52.094;4.408;2024-02-21T08:16:58;8.90;99.90
38398;DHT22;24179;52.094;4.408;2024-02-21T08:20:03;9.00;99.90
38398;DHT22;24179;52.094;4.408;2024-02-21T08:23:07;8.90;99.90
38398;DHT22;24179;52.094;4.408;2024-02-21T08:26:07;8.90;99.90
38398;DHT22;24179;52.094;4.408;2024-02-21T08:29:08;9.10;99.90
38398;DHT22;24179;52.094;4.408;2024-02-21T08:32:10;9.10;99.90
38398;DHT22;24179;52.094;4.408;2024-02-21T08:35:11;9.00;99.90
38398;DHT22;24179;52.094;4.408;2024-02-21T08:38:13;9.00;99.90
38398;DHT22;24179;52.094;4.408;2024-02-21T08:41:14;9.00;99.90
38398;DHT22;24179;52.094;4.408;2024-02-21T08:44:15;9.00;99.90
38398;DHT22;24179;52.094;4.408;2024-02-21T08:47:16;9.00;99.90
38398;DHT22;24179;52.094;4.408;2024-02-21T08:50:18;9.00;99.90
38398;DHT22;24179;52.094;4.408;2024-02-21T08:53:20;9.00;99.90
38398;DHT22;24179;52.094;4.408;2024-02-21T08:56:21;9.00;99.90
38398;DHT22;24179;52.094;4.408;2024-02-21T08:59:26;9.00;99.90
38398;DHT22;24179;52.094;4.408;2024-02-21T09:02:29;9.00;99.90
38398;DHT22;24179;52.094;4.408;2024-02-21T09:05:30;9.00;99.90
38398;DHT22;24179;52.094;4.408;2024-02-21T09:08:32;9.00;99.90
38398;DHT22;24179;52.094;4.408;2024-02-21T09:11:34;9.00;99.90
38398;DHT22;24179;52.094;4.408;2024-02-21T09:14:37;9.00;99.90
38398;DHT22;24179;52.094;4.408;2024-02-21T09:17:41;9.00;99.90
38398;DHT22;24179;52.094;4.408;2024-02-21T09:20:42;9.00;99.90
38398;DHT22;24179;52.094;4.408;2024-02-21T09:23:45;9.00;99.90
38398;DHT22;24179;52.094;4.408;2024-02-21T09:26:46;9.10;99.90
38398;DHT22;24179;52.094;4.408;2024-02-21T09:29:50;9.10;99.90
38398;DHT22;24179;52.094;4.408;2024-02-21T09:32:51;9.00;99.90
38398;DHT22;24179;52.094;4.408;2024-02-21T09:35:54;9.00;99.90
38398;DHT22;24179;52.094;4.408;2024-02-21T09:38:56;9.10;99.90
38398;DHT22;24179;52.094;4.408;2024-02-21T09:41:59;9.10;99.90
38398;DHT22;24179;52.094;4.408;2024-02-21T09:48:41;9.10;99.90
38398;DHT22;24179;52.094;4.408;2024-02-21T09:51:43;9.10;99.90
38398;DHT22;24179;52.094;4.408;2024-02-21T09:54:45;9.10;99.90
38398;DHT22;24179;52.094;4.408;2024-02-21T09:57:50;9.10;99.90
38398;DHT22;24179;52.094;4.408;2024-02-21T10:00:51;9.20;99.90
38398;DHT22;24179;52.094;4.408;2024-02-21T10:03:52;9.20;99.90
38398;DHT22;24179;52.094;4.408;2024-02-21T10:06:59;9.10;99.90
38398;DHT22;24179;52.094;4.408;2024-02-21T10:10:03;9.20;99.90
38398;DHT22;24179;52.094;4.408;2024-02-21T10:13:08;9.20;99.90
38398;DHT22;24179;52.094;4.408;2024-02-21T10:16:11;9.20;99.90
38398;DHT22;24179;52.094;4.408;2024-02-21T10:19:20;9.20;99.90
38398;DHT22;24179;52.094;4.408;2024-02-21T10:22:26;9.20;99.90
38398;DHT22;24179;52.094;4.408;2024-02-21T10:25:31;9.20;99.90
38398;DHT22;24179;52.094;4.408;2024-02-21T10:28:36;9.20;99.90
38398;DHT22;24179;52.094;4.408;2024-02-21T10:31:37;9.20;99.90
38398;DHT22;24179;52.094;4.408;2024-02-21T10:34:43;9.30;99.90
38398;DHT22;24179;52.094;4.408;2024-02-21T10:37:43;9.30;99.90
38398;DHT22;24179;52.094;4.408;2024-02-21T10:40:47;9.30;99.90
38398;DHT22;24179;52.094;4.408;2024-02-21T10:44:05;9.30;99.90
38398;DHT22;24179;52.094;4.408;2024-02-21T10:47:10;9.30;99.90
38398;DHT22;24179;52.094;4.408;2024-02-21T10:50:25;9.30;99.90
38398;DHT22;24179;52.094;4.408;2024-02-21T10:56:45;9.30;99.90
38398;DHT22;24179;52.094;4.408;2024-02-21T10:59:49;9.30;99.90
38398;DHT22;24179;52.094;4.408;2024-02-21T11:02:50;9.30;99.90
38398;DHT22;24179;52.094;4.408;2024-02-21T11:05:54;9.30;99.90
38398;DHT22;24179;52.094;4.408;2024-02-21T11:09:11;9.30;99.90
38398;DHT22;24179;52.094;4.408;2024-02-21T11:12:11;9.30;99.90
38398;DHT22;24179;52.094;4.408;2024-02-21T11:15:12;9.30;99.90
38398;DHT22;24179;52.094;4.408;2024-02-21T11:18:24;9.30;99.90
38398;DHT22;24179;52.094;4.408;2024-02-21T11:21:32;9.30;99.90
38398;DHT22;24179;52.094;4.408;2024-02-21T11:24:34;9.30;99.90
38398;DHT22;24179;52.094;4.408;2024-02-21T11:27:34;9.40;99.90
38398;DHT22;24179;52.094;4.408;2024-02-21T11:30:36;9.40;99.90
38398;DHT22;24179;52.094;4.408;2024-02-21T11:33:41;9.40;99.90
38398;DHT22;24179;52.094;4.408;2024-02-21T11:36:52;9.40;99.90
38398;DHT22;24179;52.094;4.408;2024-02-21T11:39:54;9.40;99.90
38398;DHT22;24179;52.094;4.408;2024-02-21T11:42:59;9.40;99.90
38398;DHT22;24179;52.094;4.408;2024-02-21T11:46:05;9.50;99.90
38398;DHT22;24179;52.094;4.408;2024-02-21T11:49:19;9.50;99.90
38398;DHT22;24179;52.094;4.408;2024-02-21T11:52:24;9.60;99.90
38398;DHT22;24179;52.094;4.408;2024-02-21T11:55:25;9.60;99.90
38398;DHT22;24179;52.094;4.408;2024-02-21T11:58:27;9.60;99.90
38398;DHT22;24179;52.094;4.408;2024-02-21T12:01:48;9.60;99.90
38398;DHT22;24179;52.094;4.408;2024-02-21T12:04:49;9.60;99.90
38398;DHT22;24179;52.094;4.408;2024-02-21T12:07:50;9.70;99.90
38398;DHT22;24179;52.094;4.408;2024-02-21T12:10:50;9.70;99.90
38398;DHT22;24179;52.094;4.408;2024-02-21T12:14:04;9.70;99.90
38398;DHT22;24179;52.094;4.408;2024-02-21T12:17:05;9.70;99.90
38398;DHT22;24179;52.094;4.408;2024-02-21T12:20:07;9.80;99.90
38398;DHT22;24179;52.094;4.408;2024-02-21T12:23:29;9.80;99.90
38398;DHT22;24179;52.094;4.408;2024-02-21T12:26:30;9.80;99.90
38398;DHT22;24179;52.094;4.408;2024-02-21T12:29:32;9.80;99.90
38398;DHT22;24179;52.094;4.408;2024-02-21T12:32:32;9.80;99.90
38398;DHT22;24179;52.094;4.408;2024-02-21T12:35:33;9.90;99.90
38398;DHT22;24179;52.094;4.408;2024-02-21T12:38:34;9.90;99.90
38398;DHT22;24179;52.094;4.408;2024-02-21T12:41:38;9.90;99.90
38398;DHT22;24179;52.094;4.408;2024-02-21T12:44:42;9.90;99.90
38398;DHT22;24179;52.094;4.408;2024-02-21T12:47:46;9.90;99.90
38398;DHT22;24179;52.094;4.408;2024-02-21T12:50:50;9.90;99.90
38398;DHT22;24179;52.094;4.408;2024-02-21T12:53:54;9.90;99.90
38398;DHT22;24179;52.094;4.408;2024-02-21T12:56:55;9.90;99.90
38398;DHT22;24179;52.094;4.408;2024-02-21T12:59:57;9.90;99.90
38398;DHT22;24179;52.094;4.408;2024-02-21T13:02:58;9.80;99.90
38398;DHT22;24179;52.094;4.408;2024-02-21T13:06:00;9.80;99.90
38398;DHT22;24179;52.094;4.408;2024-02-21T13:09:00;9.90;99.90
38398;DHT22;24179;52.094;4.408;2024-02-21T13:12:04;9.80;99.90
38398;DHT22;24179;52.094;4.408;2024-02-21T13:15:07;9.80;99.90
38398;DHT22;24179;52.094;4.408;2024-02-21T13:18:21;9.90;99.90
38398;DHT22;24179;52.094;4.408;2024-02-21T13:21:38;9.80;99.90
38398;DHT22;24179;52.094;4.408;2024-02-21T13:24:50;9.90;99.90
38398;DHT22;24179;52.094;4.408;2024-02-21T13:27:53;9.80;99.90
38398;DHT22;24179;52.094;4.408;2024-02-21T13:31:09;9.80;99.90
38398;DHT22;24179;52.094;4.408;2024-02-21T13:34:30;9.80;99.90
38398;DHT22;24179;52.094;4.408;2024-02-21T13:37:37;9.80;99.90
38398;DHT22;24179;52.094;4.408;2024-02-21T13:40:38;9.80;99.90
38398;DHT22;24179;52.094;4.408;2024-02-21T13:43:38;9.70;99.90
38398;DHT22;24179;52.094;4.408;2024-02-21T13:46:39;9.70;99.90
38398;DHT22;24179;52.094;4.408;2024-02-21T13:49:40;9.70;99.90
38398;DHT22;24179;52.094;4.408;2024-02-21T13:52:48;9.70;99.90
38398;DHT22;24179;52.094;4.408;2024-02-21T13:55:51;9.80;99.90
38398;DHT22;24179;52.094;4.408;2024-02-21T13:58:54;9.80;99.90
38398;DHT22;24179;52.094;4.408;2024-02-21T14:01:57;9.70;99.90
38398;DHT22;24179;52.094;4.408;2024-02-21T14:05:01;9.70;99.90
38398;DHT22;24179;52.094;4.408;2024-02-21T14:08:07;9.70;99.90
38398;DHT22;24179;52.094;4.408;2024-02-21T14:11:35;9.70;99.90
38398;DHT22;24179;52.094;4.408;2024-02-21T14:14:55;9.60;99.90
38398;DHT22;24179;52.094;4.408;2024-02-21T14:18:01;9.70;99.90
38398;DHT22;24179;52.094;4.408;2024-02-21T14:21:15;9.60;99.90
38398;DHT22;24179;52.094;4.408;2024-02-21T14:24:16;9.60;99.90
38398;DHT22;24179;52.094;4.408;2024-02-21T14:27:22;9.60;99.90
38398;DHT22;24179;52.094;4.408;2024-02-21T14:30:34;9.60;99.90
38398;DHT22;24179;52.094;4.408;2024-02-21T14:33:37;9.60;99.90
38398;DHT22;24179;52.094;4.408;2024-02-21T14:36:55;9.60;99.90
38398;DHT22;24179;52.094;4.408;2024-02-21T14:40:09;9.60;99.90
38398;DHT22;24179;52.094;4.408;2024-02-21T14:43:13;9.60;99.90
38398;DHT22;24179;52.094;4.408;2024-02-21T14:46:16;9.60;99.90
38398;DHT22;24179;52.094;4.408;2024-02-21T14:49:19;9.50;99.90
38398;DHT22;24179;52.094;4.408;2024-02-21T14:52:21;9.50;99.90
38398;DHT22;24179;52.094;4.408;2024-02-21T14:55:28;9.60;99.90
38398;DHT22;24179;52.094;4.408;2024-02-21T14:58:33;9.50;99.90
38398;DHT22;24179;52.094;4.408;2024-02-21T15:01:37;9.50;99.90
38398;DHT22;24179;52.094;4.408;2024-02-21T15:04:43;9.50;99.90
38398;DHT22;24179;52.094;4.408;2024-02-21T15:07:44;9.50;99.90
38398;DHT22;24179;52.094;4.408;2024-02-21T15:10:46;9.50;99.90
38398;DHT22;24179;52.094;4.408;2024-02-21T15:13:47;9.40;99.90
38398;DHT22;24179;52.094;4.408;2024-02-21T15:16:48;9.40;99.90
38398;DHT22;24179;52.094;4.408;2024-02-21T15:19:49;9.40;99.90
38398;DHT22;24179;52.094;4.408;2024-02-21T15:22:50;9.40;99.90
38398;DHT22;24179;52.094;4.408;2024-02-21T15:25:51;9.40;99.90
38398;DHT22;24179;52.094;4.408;2024-02-21T15:28:51;9.30;99.90
38398;DHT22;24179;52.094;4.408;2024-02-21T15:31:54;9.40;99.90
38398;DHT22;24179;52.094;4.408;2024-02-21T15:34:56;9.40;99.90
38398;DHT22;24179;52.094;4.408;2024-02-21T15:37:57;9.40;99.90
38398;DHT22;24179;52.094;4.408;2024-02-21T15:41:01;9.30;99.90
38398;DHT22;24179;52.094;4.408;2024-02-21T15:44:01;9.30;99.90
38398;DHT22;24179;52.094;4.408;2024-02-21T15:47:04;9.30;99.90
38398;DHT22;24179;52.094;4.408;2024-02-21T15:50:06;9.30;99.90
38398;DHT22;24179;52.094;4.408;2024-02-21T15:53:06;9.30;99.90
38398;DHT22;24179;52.094;4.408;2024-02-21T15:56:07;9.30;99.90
38398;DHT22;24179;52.094;4.408;2024-02-21T15:59:10;9.40;99.90
38398;DHT22;24179;52.094;4.408;2024-02-21T16:02:20;9.30;99.90
38398;DHT22;24179;52.094;4.408;2024-02-21T16:05:21;9.30;99.90
38398;DHT22;24179;52.094;4.408;2024-02-21T16:08:25;9.20;99.90
38398;DHT22;24179;52.094;4.408;2024-02-21T16:11:26;9.20;99.90
38398;DHT22;24179;52.094;4.408;2024-02-21T16:14:27;9.30;99.90
38398;DHT22;24179;52.094;4.408;2024-02-21T16:17:29;9.30;99.90
38398;DHT22;24179;52.094;4.408;2024-02-21T16:20:30;9.20;99.90
38398;DHT22;24179;52.094;4.408;2024-02-21T16:23:36;9.20;99.90
38398;DHT22;24179;52.094;4.408;2024-02-21T16:26:39;9.30;99.90
38398;DHT22;24179;52.094;4.408;2024-02-21T16:29:42;9.20;99.90
38398;DHT22;24179;52.094;4.408;2024-02-21T16:32:43;9.30;99.90
38398;DHT22;24179;52.094;4.408;2024-02-21T16:35:44;9.20;99.90
38398;DHT22;24179;52.094;4.408;2024-02-21T16:38:49;9.20;99.90
38398;DHT22;24179;52.094;4.408;2024-02-21T16:41:51;9.20;99.90
38398;DHT22;24179;52.094;4.408;2024-02-21T16:45:05;9.20;99.90
38398;DHT22;24179;52.094;4.408;2024-02-21T16:48:09;9.20;99.90
38398;DHT22;24179;52.094;4.408;2024-02-21T16:51:20;9.20;99.90
38398;DHT22;24179;52.094;4.408;2024-02-21T16:54:22;9.20;99.90
38398;DHT22;24179;52.094;4.408;2024-02-21T16:57:23;9.20;99.90
38398;DHT22;24179;52.094;4.408;2024-02-21T17:00:34;9.20;99.90
38398;DHT22;24179;52.094;4.408;2024-02-21T17:03:42;9.20;99.90
38398;DHT22;24179;52.094;4.408;2024-02-21T17:06:46;9.20;99.90
38398;DHT22;24179;52.094;4.408;2024-02-21T17:09:47;9.20;99.90
38398;DHT22;24179;52.094;4.408;2024-02-21T17:12:59;9.20;99.90
38398;DHT22;24179;52.094;4.408;2024-02-21T17:16:05;9.20;99.90
38398;DHT22;24179;52.094;4.408;2024-02-21T17:19:17;9.20;99.90
38398;DHT22;24179;52.094;4.408;2024-02-21T17:22:18;9.10;99.90
38398;DHT22;24179;52.094;4.408;2024-02-21T17:25:26;9.30;99.90
38398;DHT22;24179;52.094;4.408;2024-02-21T17:28:27;9.10;99.90
38398;DHT22;24179;52.094;4.408;2024-02-21T17:31:31;9.10;99.90
38398;DHT22;24179;52.094;4.408;2024-02-21T17:34:37;9.20;99.90
38398;DHT22;24179;52.094;4.408;2024-02-21T17:37:53;9.20;99.90
38398;DHT22;24179;52.094;4.408;2024-02-21T17:40:54;9.10;99.90
38398;DHT22;24179;52.094;4.408;2024-02-21T17:43:55;9.10;99.90
38398;DHT22;24179;52.094;4.408;2024-02-21T17:47:02;9.10;99.90
38398;DHT22;24179;52.094;4.408;2024-02-21T17:50:11;9.20;99.90
38398;DHT22;24179;52.094;4.408;2024-02-21T17:53:30;9.10;99.90
38398;DHT22;24179;52.094;4.408;2024-02-21T17:56:36;9.10;99.90
38398;DHT22;24179;52.094;4.408;2024-02-21T17:59:42;9.20;99.90
38398;DHT22;24179;52.094;4.408;2024-02-21T18:02:48;9.20;99.90
38398;DHT22;24179;52.094;4.408;2024-02-21T18:06:20;9.20;99.90
38398;DHT22;24179;52.094;4.408;2024-02-21T18:09:31;9.20;99.90
38398;DHT22;24179;52.094;4.408;2024-02-21T18:12:41;9.10;99.90
38398;DHT22;24179;52.094;4.408;2024-02-21T18:15:42;9.10;99.90
38398;DHT22;24179;52.094;4.408;2024-02-21T18:18:45;9.20;99.90
38398;DHT22;24179;52.094;4.408;2024-02-21T18:21:46;9.20;99.90
38398;DHT22;24179;52.094;4.408;2024-02-21T18:24:47;9.10;99.90
38398;DHT22;24179;52.094;4.408;2024-02-21T18:27:50;9.20;99.90
38398;DHT22;24179;52.094;4.408;2024-02-21T18:30:53;9.10;99.90
38398;DHT22;24179;52.094;4.408;2024-02-21T18:34:01;9.10;99.90
38398;DHT22;24179;52.094;4.408;2024-02-21T18:37:06;9.10;99.90
38398;DHT22;24179;52.094;4.408;2024-02-21T18:40:35;9.20;99.90
38398;DHT22;24179;52.094;4.408;2024-02-21T18:43:43;9.20;99.90
38398;DHT22;24179;52.094;4.408;2024-02-21T18:46:57;9.10;99.90
38398;DHT22;24179;52.094;4.408;2024-02-21T18:49:58;9.30;99.90
38398;DHT22;24179;52.094;4.408;2024-02-21T18:52:59;9.10;99.90
38398;DHT22;24179;52.094;4.408;2024-02-21T18:56:04;9.20;99.90
38398;DHT22;24179;52.094;4.408;2024-02-21T18:59:08;9.20;99.90
38398;DHT22;24179;52.094;4.408;2024-02-21T19:02:20;9.30;99.90
38398;DHT22;24179;52.094;4.408;2024-02-21T19:05:28;9.20;99.90
38398;DHT22;24179;52.094;4.408;2024-02-21T19:08:48;9.10;99.90
38398;DHT22;24179;52.094;4.408;2024-02-21T19:11:51;9.10;99.90
38398;DHT22;24179;52.094;4.408;2024-02-21T19:14:54;9.10;99.90
38398;DHT22;24179;52.094;4.408;2024-02-21T19:17:54;9.20;99.90
38398;DHT22;24179;52.094;4.408;2024-02-21T19:20:55;9.20;99.90
38398;DHT22;24179;52.094;4.408;2024-02-21T19:24:01;9.20;99.90
38398;DHT22;24179;52.094;4.408;2024-02-21T19:27:01;9.20;99.90
38398;DHT22;24179;52.094;4.408;2024-02-21T19:30:05;9.20;99.90
38398;DHT22;24179;52.094;4.408;2024-02-21T19:33:07;9.20;99.90
38398;DHT22;24179;52.094;4.408;2024-02-21T19:36:10;9.20;99.90
38398;DHT22;24179;52.094;4.408;2024-02-21T19:39:10;9.20;99.90
38398;DHT22;24179;52.094;4.408;2024-02-21T19:42:13;9.20;99.90